sensor_id;sensor_type;location;lat;lon;timestamp;P1;durP1;ratioP1;P2;durP2;ratioP2
26253;SDS011;53339;51.378;0.094;2022-07-06T00:02:00;2.95;;;2.65;;
26253;SDS011;53339;51.378;0.094;2022-07-06T00:04:46;3.22;;;2.92;;
26253;SDS011;53339;51.378;0.094;2022-07-06T00:07:33;3.85;;;3.55;;
26253;SDS011;53339;51.378;0.094;2022-07-06T00:10:19;3.17;;;2.85;;
26253;SDS011;53339;51.378;0.094;2022-07-06T00:13:05;4.82;;;4.45;;
26253;SDS011;53339;51.378;0.094;2022-07-06T00:15:51;3.75;;;3.45;;
26253;SDS011;53339;51.378;0.094;2022-07-06T00:18:37;4.60;;;3.25;;
26253;SDS011;53339;51.378;0.094;2022-07-06T00:21:23;3.88;;;3.35;;
26253;SDS011;53339;51.378;0.094;2022-07-06T00:24:10;3.30;;;2.78;;
26253;SDS011;53339;51.378;0.094;2022-07-06T00:26:56;3.78;;;3.22;;
26253;SDS011;53339;51.378;0.094;2022-07-06T00:29:42;4.78;;;1.63;;
26253;SDS011;53339;51.378;0.094;2022-07-06T00:32:29;5.18;;;3.00;;
26253;SDS011;53339;51.378;0.094;2022-07-06T00:35:15;4.10;;;3.70;;
26253;SDS011;53339;51.378;0.094;2022-07-06T00:38:01;3.97;;;3.65;;
26253;SDS011;53339;51.378;0.094;2022-07-06T00:40:47;3.75;;;3.45;;
26253;SDS011;53339;51.378;0.094;2022-07-06T00:43:55;4.30;;;2.80;;
26253;SDS011;53339;51.378;0.094;2022-07-06T00:46:42;3.58;;;3.28;;
26253;SDS011;53339;51.378;0.094;2022-07-06T00:49:28;5.18;;;4.75;;
26253;SDS011;53339;51.378;0.094;2022-07-06T00:52:33;3.53;;;3.22;;
26253;SDS011;53339;51.378;0.094;2022-07-06T00:55:20;4.05;;;3.65;;
26253;SDS011;53339;51.378;0.094;2022-07-06T00:58:08;5.25;;;2.85;;
26253;SDS011;53339;51.378;0.094;2022-07-06T01:00:54;4.30;;;3.63;;
26253;SDS011;53339;51.378;0.094;2022-07-06T01:03:40;4.85;;;3.78;;
26253;SDS011;53339;51.378;0.094;2022-07-06T01:06:27;3.88;;;3.45;;
26253;SDS011;53339;51.378;0.094;2022-07-06T01:09:13;3.75;;;3.40;;
26253;SDS011;53339;51.378;0.094;2022-07-06T01:11:59;5.15;;;3.40;;
26253;SDS011;53339;51.378;0.094;2022-07-06T01:14:45;5.88;;;3.78;;
26253;SDS011;53339;51.378;0.094;2022-07-06T01:17:32;4.05;;;1.85;;
26253;SDS011;53339;51.378;0.094;2022-07-06T01:23:06;5.28;;;3.22;;
26253;SDS011;53339;51.378;0.094;2022-07-06T01:25:54;7.75;;;3.60;;
26253;SDS011;53339;51.378;0.094;2022-07-06T01:28:41;4.90;;;3.42;;
26253;SDS011;53339;51.378;0.094;2022-07-06T01:31:28;5.57;;;3.90;;
26253;SDS011;53339;51.378;0.094;2022-07-06T01:34:17;4.55;;;3.50;;
26253;SDS011;53339;51.378;0.094;2022-07-06T01:37:04;4.15;;;3.33;;
26253;SDS011;53339;51.378;0.094;2022-07-06T01:39:49;4.63;;;4.20;;
26253;SDS011;53339;51.378;0.094;2022-07-06T01:42:36;2.67;;;1.40;;
26253;SDS011;53339;51.378;0.094;2022-07-06T01:45:22;5.72;;;4.35;;
26253;SDS011;53339;51.378;0.094;2022-07-06T01:48:09;5.78;;;4.00;;
26253;SDS011;53339;51.378;0.094;2022-07-06T01:50:56;5.45;;;3.50;;
26253;SDS011;53339;51.378;0.094;2022-07-06T01:53:43;4.93;;;3.80;;
26253;SDS011;53339;51.378;0.094;2022-07-06T01:56:30;4.30;;;3.15;;
26253;SDS011;53339;51.378;0.094;2022-07-06T01:59:20;4.93;;;4.18;;
26253;SDS011;53339;51.378;0.094;2022-07-06T02:02:06;4.97;;;4.10;;
26253;SDS011;53339;51.378;0.094;2022-07-06T02:04:52;5.05;;;4.55;;
26253;SDS011;53339;51.378;0.094;2022-07-06T02:07:39;6.95;;;4.30;;
26253;SDS011;53339;51.378;0.094;2022-07-06T02:10:28;5.72;;;4.60;;
26253;SDS011;53339;51.378;0.094;2022-07-06T02:13:14;6.43;;;5.80;;
26253;SDS011;53339;51.378;0.094;2022-07-06T02:16:00;5.38;;;3.60;;
26253;SDS011;53339;51.378;0.094;2022-07-06T02:18:46;5.93;;;3.17;;
26253;SDS011;53339;51.378;0.094;2022-07-06T02:21:32;3.58;;;2.80;;
26253;SDS011;53339;51.378;0.094;2022-07-06T02:24:18;4.55;;;3.72;;
26253;SDS011;53339;51.378;0.094;2022-07-06T02:27:05;4.25;;;2.97;;
26253;SDS011;53339;51.378;0.094;2022-07-06T02:29:51;3.80;;;3.17;;
26253;SDS011;53339;51.378;0.094;2022-07-06T02:32:37;3.88;;;2.95;;
26253;SDS011;53339;51.378;0.094;2022-07-06T02:35:24;4.53;;;3.47;;
26253;SDS011;53339;51.378;0.094;2022-07-06T02:38:10;5.53;;;3.92;;
26253;SDS011;53339;51.378;0.094;2022-07-06T02:40:56;6.03;;;5.20;;
26253;SDS011;53339;51.378;0.094;2022-07-06T02:43:42;5.75;;;3.40;;
26253;SDS011;53339;51.378;0.094;2022-07-06T02:46:29;5.05;;;3.33;;
26253;SDS011;53339;51.378;0.094;2022-07-06T02:49:15;5.18;;;3.78;;
26253;SDS011;53339;51.378;0.094;2022-07-06T02:52:01;5.32;;;2.65;;
26253;SDS011;53339;51.378;0.094;2022-07-06T02:54:49;6.10;;;3.78;;
26253;SDS011;53339;51.378;0.094;2022-07-06T02:57:37;5.18;;;3.70;;
26253;SDS011;53339;51.378;0.094;2022-07-06T03:00:24;4.63;;;3.08;;
26253;SDS011;53339;51.378;0.094;2022-07-06T03:03:11;5.28;;;3.58;;
26253;SDS011;53339;51.378;0.094;2022-07-06T03:05:58;4.95;;;3.78;;
26253;SDS011;53339;51.378;0.094;2022-07-06T03:08:47;5.25;;;3.60;;
26253;SDS011;53339;51.378;0.094;2022-07-06T03:11:33;5.00;;;4.07;;
26253;SDS011;53339;51.378;0.094;2022-07-06T03:17:10;4.70;;;3.17;;
26253;SDS011;53339;51.378;0.094;2022-07-06T03:19:57;5.03;;;3.92;;
26253;SDS011;53339;51.378;0.094;2022-07-06T03:22:43;5.65;;;3.65;;
26253;SDS011;53339;51.378;0.094;2022-07-06T03:25:32;3.65;;;2.95;;
26253;SDS011;53339;51.378;0.094;2022-07-06T03:28:19;4.15;;;3.40;;
26253;SDS011;53339;51.378;0.094;2022-07-06T03:31:05;5.30;;;4.35;;
26253;SDS011;53339;51.378;0.094;2022-07-06T03:33:52;6.40;;;4.28;;
26253;SDS011;53339;51.378;0.094;2022-07-06T03:36:39;5.20;;;3.70;;
26253;SDS011;53339;51.378;0.094;2022-07-06T03:39:26;4.40;;;3.75;;
26253;SDS011;53339;51.378;0.094;2022-07-06T03:42:14;6.05;;;4.85;;
26253;SDS011;53339;51.378;0.094;2022-07-06T03:45:00;4.75;;;4.20;;
26253;SDS011;53339;51.378;0.094;2022-07-06T03:47:47;5.25;;;4.18;;
26253;SDS011;53339;51.378;0.094;2022-07-06T03:50:33;4.93;;;4.53;;
26253;SDS011;53339;51.378;0.094;2022-07-06T03:53:20;4.45;;;3.58;;
26253;SDS011;53339;51.378;0.094;2022-07-06T03:56:06;3.10;;;1.90;;
26253;SDS011;53339;51.378;0.094;2022-07-06T03:59:10;4.72;;;3.85;;
26253;SDS011;53339;51.378;0.094;2022-07-06T04:01:57;6.00;;;3.80;;
26253;SDS011;53339;51.378;0.094;2022-07-06T04:04:43;5.93;;;3.60;;
26253;SDS011;53339;51.378;0.094;2022-07-06T04:07:30;5.47;;;4.68;;
26253;SDS011;53339;51.378;0.094;2022-07-06T04:10:17;4.88;;;3.88;;
26253;SDS011;53339;51.378;0.094;2022-07-06T04:13:03;5.35;;;3.58;;
26253;SDS011;53339;51.378;0.094;2022-07-06T04:15:50;5.75;;;4.13;;
26253;SDS011;53339;51.378;0.094;2022-07-06T04:18:36;4.28;;;3.88;;
26253;SDS011;53339;51.378;0.094;2022-07-06T04:21:25;6.47;;;3.55;;
26253;SDS011;53339;51.378;0.094;2022-07-06T04:24:11;6.97;;;3.80;;
26253;SDS011;53339;51.378;0.094;2022-07-06T04:26:57;4.90;;;4.30;;
26253;SDS011;53339;51.378;0.094;2022-07-06T04:29:43;6.07;;;4.43;;
26253;SDS011;53339;51.378;0.094;2022-07-06T04:32:30;3.78;;;3.13;;
26253;SDS011;53339;51.378;0.094;2022-07-06T04:35:16;7.55;;;3.67;;
26253;SDS011;53339;51.378;0.094;2022-07-06T04:38:05;3.53;;;1.80;;
26253;SDS011;53339;51.378;0.094;2022-07-06T04:40:51;7.15;;;5.03;;
26253;SDS011;53339;51.378;0.094;2022-07-06T04:43:38;6.15;;;2.25;;
26253;SDS011;53339;51.378;0.094;2022-07-06T04:46:25;6.32;;;4.10;;
26253;SDS011;53339;51.378;0.094;2022-07-06T04:49:12;5.10;;;1.60;;
26253;SDS011;53339;51.378;0.094;2022-07-06T04:51:58;5.63;;;3.58;;
26253;SDS011;53339;51.378;0.094;2022-07-06T04:54:46;4.97;;;4.00;;
26253;SDS011;53339;51.378;0.094;2022-07-06T04:57:32;6.20;;;2.95;;
26253;SDS011;53339;51.378;0.094;2022-07-06T05:00:19;6.82;;;4.38;;
26253;SDS011;53339;51.378;0.094;2022-07-06T05:03:08;6.53;;;4.07;;
26253;SDS011;53339;51.378;0.094;2022-07-06T05:05:54;5.32;;;3.78;;
26253;SDS011;53339;51.378;0.094;2022-07-06T05:08:40;5.78;;;3.75;;
26253;SDS011;53339;51.378;0.094;2022-07-06T05:11:26;5.97;;;4.43;;
26253;SDS011;53339;51.378;0.094;2022-07-06T05:14:13;6.55;;;4.45;;
26253;SDS011;53339;51.378;0.094;2022-07-06T05:17:00;5.13;;;3.38;;
26253;SDS011;53339;51.378;0.094;2022-07-06T05:19:45;5.30;;;3.92;;
26253;SDS011;53339;51.378;0.094;2022-07-06T05:22:32;6.15;;;3.97;;
26253;SDS011;53339;51.378;0.094;2022-07-06T05:25:19;7.68;;;4.30;;
26253;SDS011;53339;51.378;0.094;2022-07-06T05:28:05;6.72;;;4.05;;
26253;SDS011;53339;51.378;0.094;2022-07-06T05:30:51;7.05;;;3.80;;
26253;SDS011;53339;51.378;0.094;2022-07-06T05:33:38;5.53;;;4.28;;
26253;SDS011;53339;51.378;0.094;2022-07-06T05:36:24;6.60;;;3.85;;
26253;SDS011;53339;51.378;0.094;2022-07-06T05:39:10;7.65;;;4.22;;
26253;SDS011;53339;51.378;0.094;2022-07-06T05:41:56;5.38;;;3.60;;
26253;SDS011;53339;51.378;0.094;2022-07-06T05:44:42;7.13;;;3.85;;
26253;SDS011;53339;51.378;0.094;2022-07-06T05:47:28;7.07;;;4.70;;
26253;SDS011;53339;51.378;0.094;2022-07-06T05:50:40;8.13;;;3.75;;
26253;SDS011;53339;51.378;0.094;2022-07-06T05:53:27;6.38;;;3.67;;
26253;SDS011;53339;51.378;0.094;2022-07-06T05:56:14;6.13;;;3.25;;
26253;SDS011;53339;51.378;0.094;2022-07-06T05:59:01;5.80;;;3.47;;
26253;SDS011;53339;51.378;0.094;2022-07-06T06:01:49;8.55;;;3.17;;
26253;SDS011;53339;51.378;0.094;2022-07-06T06:04:39;7.82;;;3.85;;
26253;SDS011;53339;51.378;0.094;2022-07-06T06:07:25;6.07;;;3.58;;
26253;SDS011;53339;51.378;0.094;2022-07-06T06:10:12;5.85;;;1.83;;
26253;SDS011;53339;51.378;0.094;2022-07-06T06:12:59;4.60;;;3.95;;
26253;SDS011;53339;51.378;0.094;2022-07-06T06:15:45;6.40;;;4.03;;
26253;SDS011;53339;51.378;0.094;2022-07-06T06:18:33;6.13;;;4.13;;
26253;SDS011;53339;51.378;0.094;2022-07-06T06:21:25;5.78;;;4.50;;
26253;SDS011;53339;51.378;0.094;2022-07-06T06:24:11;6.47;;;3.78;;
26253;SDS011;53339;51.378;0.094;2022-07-06T06:26:58;8.07;;;1.65;;
26253;SDS011;53339;51.378;0.094;2022-07-06T06:29:47;6.25;;;3.72;;
26253;SDS011;53339;51.378;0.094;2022-07-06T06:32:33;6.57;;;2.88;;
26253;SDS011;53339;51.378;0.094;2022-07-06T06:35:19;5.20;;;3.30;;
26253;SDS011;53339;51.378;0.094;2022-07-06T06:38:05;4.50;;;3.85;;
26253;SDS011;53339;51.378;0.094;2022-07-06T06:40:52;6.40;;;4.00;;
26253;SDS011;53339;51.378;0.094;2022-07-06T06:43:39;6.10;;;3.75;;
26253;SDS011;53339;51.378;0.094;2022-07-06T06:46:31;6.40;;;3.47;;
26253;SDS011;53339;51.378;0.094;2022-07-06T06:49:17;5.78;;;3.58;;
26253;SDS011;53339;51.378;0.094;2022-07-06T06:52:04;5.32;;;3.47;;
26253;SDS011;53339;51.378;0.094;2022-07-06T06:55:10;4.60;;;3.38;;
26253;SDS011;53339;51.378;0.094;2022-07-06T06:57:56;7.47;;;3.40;;
26253;SDS011;53339;51.378;0.094;2022-07-06T07:00:42;5.63;;;3.50;;
26253;SDS011;53339;51.378;0.094;2022-07-06T07:03:29;6.78;;;4.15;;
26253;SDS011;53339;51.378;0.094;2022-07-06T07:06:15;4.38;;;3.22;;
26253;SDS011;53339;51.378;0.094;2022-07-06T07:09:00;5.72;;;3.55;;
26253;SDS011;53339;51.378;0.094;2022-07-06T07:11:46;5.15;;;3.78;;
26253;SDS011;53339;51.378;0.094;2022-07-06T07:14:32;5.13;;;3.33;;
26253;SDS011;53339;51.378;0.094;2022-07-06T07:17:19;5.47;;;4.93;;
26253;SDS011;53339;51.378;0.094;2022-07-06T07:20:05;6.55;;;3.95;;
26253;SDS011;53339;51.378;0.094;2022-07-06T07:22:52;5.30;;;4.18;;
26253;SDS011;53339;51.378;0.094;2022-07-06T07:25:38;6.38;;;3.08;;
26253;SDS011;53339;51.378;0.094;2022-07-06T07:28:25;6.63;;;4.38;;
26253;SDS011;53339;51.378;0.094;2022-07-06T07:31:12;4.85;;;1.50;;
26253;SDS011;53339;51.378;0.094;2022-07-06T07:33:58;7.22;;;3.50;;
26253;SDS011;53339;51.378;0.094;2022-07-06T07:36:44;3.63;;;2.70;;
26253;SDS011;53339;51.378;0.094;2022-07-06T07:39:30;3.33;;;2.78;;
26253;SDS011;53339;51.378;0.094;2022-07-06T07:42:16;4.63;;;3.17;;
26253;SDS011;53339;51.378;0.094;2022-07-06T07:45:03;4.25;;;3.10;;
26253;SDS011;53339;51.378;0.094;2022-07-06T07:47:49;4.60;;;3.25;;
26253;SDS011;53339;51.378;0.094;2022-07-06T07:50:35;5.30;;;3.45;;
26253;SDS011;53339;51.378;0.094;2022-07-06T07:53:21;4.93;;;3.17;;
26253;SDS011;53339;51.378;0.094;2022-07-06T07:56:07;4.20;;;3.75;;
26253;SDS011;53339;51.378;0.094;2022-07-06T07:58:53;5.38;;;3.03;;
26253;SDS011;53339;51.378;0.094;2022-07-06T08:01:45;3.75;;;3.30;;
26253;SDS011;53339;51.378;0.094;2022-07-06T08:04:31;3.95;;;2.80;;
26253;SDS011;53339;51.378;0.094;2022-07-06T08:07:17;5.75;;;3.08;;
26253;SDS011;53339;51.378;0.094;2022-07-06T08:10:03;4.63;;;2.63;;
26253;SDS011;53339;51.378;0.094;2022-07-06T08:12:49;6.47;;;3.63;;
26253;SDS011;53339;51.378;0.094;2022-07-06T08:15:36;4.78;;;2.90;;
26253;SDS011;53339;51.378;0.094;2022-07-06T08:18:22;5.20;;;2.75;;
26253;SDS011;53339;51.378;0.094;2022-07-06T08:21:09;4.00;;;1.30;;
26253;SDS011;53339;51.378;0.094;2022-07-06T08:24:12;4.68;;;2.85;;
26253;SDS011;53339;51.378;0.094;2022-07-06T08:26:58;3.78;;;2.72;;
26253;SDS011;53339;51.378;0.094;2022-07-06T08:29:44;3.88;;;2.97;;
26253;SDS011;53339;51.378;0.094;2022-07-06T08:32:30;2.72;;;1.35;;
26253;SDS011;53339;51.378;0.094;2022-07-06T08:35:36;4.65;;;2.85;;
26253;SDS011;53339;51.378;0.094;2022-07-06T08:38:22;4.50;;;3.15;;
26253;SDS011;53339;51.378;0.094;2022-07-06T08:41:09;6.07;;;3.10;;
26253;SDS011;53339;51.378;0.094;2022-07-06T08:43:56;5.07;;;3.20;;
26253;SDS011;53339;51.378;0.094;2022-07-06T08:46:43;3.60;;;2.97;;
26253;SDS011;53339;51.378;0.094;2022-07-06T08:49:30;5.88;;;3.05;;
26253;SDS011;53339;51.378;0.094;2022-07-06T08:52:19;5.25;;;4.75;;
26253;SDS011;53339;51.378;0.094;2022-07-06T08:55:08;3.70;;;2.60;;
26253;SDS011;53339;51.378;0.094;2022-07-06T08:57:55;3.65;;;2.88;;
26253;SDS011;53339;51.378;0.094;2022-07-06T09:00:42;5.65;;;3.30;;
26253;SDS011;53339;51.378;0.094;2022-07-06T09:03:29;3.00;;;1.48;;
26253;SDS011;53339;51.378;0.094;2022-07-06T09:06:17;3.10;;;2.17;;
26253;SDS011;53339;51.378;0.094;2022-07-06T09:09:08;3.20;;;2.50;;
26253;SDS011;53339;51.378;0.094;2022-07-06T09:11:56;4.47;;;2.83;;
26253;SDS011;53339;51.378;0.094;2022-07-06T09:14:51;4.18;;;2.75;;
26253;SDS011;53339;51.378;0.094;2022-07-06T09:17:44;4.72;;;3.30;;
26253;SDS011;53339;51.378;0.094;2022-07-06T09:20:30;3.25;;;2.67;;
26253;SDS011;53339;51.378;0.094;2022-07-06T09:23:17;4.07;;;3.42;;
26253;SDS011;53339;51.378;0.094;2022-07-06T09:26:06;4.38;;;3.97;;
26253;SDS011;53339;51.378;0.094;2022-07-06T09:28:56;3.75;;;2.70;;
26253;SDS011;53339;51.378;0.094;2022-07-06T09:31:45;6.63;;;3.90;;
26253;SDS011;53339;51.378;0.094;2022-07-06T09:34:48;3.13;;;2.83;;
26253;SDS011;53339;51.378;0.094;2022-07-06T09:37:35;3.58;;;2.35;;
26253;SDS011;53339;51.378;0.094;2022-07-06T09:40:21;3.42;;;2.65;;
26253;SDS011;53339;51.378;0.094;2022-07-06T09:43:14;3.38;;;3.08;;
26253;SDS011;53339;51.378;0.094;2022-07-06T09:46:04;3.42;;;3.13;;
26253;SDS011;53339;51.378;0.094;2022-07-06T09:48:51;3.70;;;2.45;;
26253;SDS011;53339;51.378;0.094;2022-07-06T09:51:39;2.67;;;2.47;;
26253;SDS011;53339;51.378;0.094;2022-07-06T09:54:28;3.20;;;2.70;;
26253;SDS011;53339;51.378;0.094;2022-07-06T09:57:14;3.13;;;2.55;;
26253;SDS011;53339;51.378;0.094;2022-07-06T10:00:05;4.20;;;2.90;;
26253;SDS011;53339;51.378;0.094;2022-07-06T10:02:56;2.80;;;2.33;;
26253;SDS011;53339;51.378;0.094;2022-07-06T10:05:45;3.67;;;2.55;;
26253;SDS011;53339;51.378;0.094;2022-07-06T10:08:33;2.90;;;0.80;;
26253;SDS011;53339;51.378;0.094;2022-07-06T10:11:20;2.90;;;2.50;;
26253;SDS011;53339;51.378;0.094;2022-07-06T10:14:08;4.28;;;2.55;;
26253;SDS011;53339;51.378;0.094;2022-07-06T10:16:59;2.80;;;2.35;;
26253;SDS011;53339;51.378;0.094;2022-07-06T10:19:47;3.30;;;1.10;;
26253;SDS011;53339;51.378;0.094;2022-07-06T10:22:39;5.00;;;3.75;;
26253;SDS011;53339;51.378;0.094;2022-07-06T10:25:26;3.58;;;2.45;;
26253;SDS011;53339;51.378;0.094;2022-07-06T10:28:13;2.88;;;2.33;;
26253;SDS011;53339;51.378;0.094;2022-07-06T10:31:00;3.00;;;2.70;;
26253;SDS011;53339;51.378;0.094;2022-07-06T10:33:48;3.10;;;2.28;;
26253;SDS011;53339;51.378;0.094;2022-07-06T10:36:42;2.97;;;1.83;;
26253;SDS011;53339;51.378;0.094;2022-07-06T10:39:32;3.53;;;2.95;;
26253;SDS011;53339;51.378;0.094;2022-07-06T10:48:18;1.52;;;0.75;;
26253;SDS011;53339;51.378;0.094;2022-07-06T10:51:06;3.00;;;2.50;;
26253;SDS011;53339;51.378;0.094;2022-07-06T10:53:58;2.22;;;2.03;;
26253;SDS011;53339;51.378;0.094;2022-07-06T10:56:51;2.42;;;2.22;;
26253;SDS011;53339;51.378;0.094;2022-07-06T10:59:37;4.38;;;2.58;;
26253;SDS011;53339;51.378;0.094;2022-07-06T11:02:23;2.58;;;2.10;;
26253;SDS011;53339;51.378;0.094;2022-07-06T11:05:39;3.33;;;2.22;;
26253;SDS011;53339;51.378;0.094;2022-07-06T11:08:47;2.33;;;2.10;;
26253;SDS011;53339;51.378;0.094;2022-07-06T11:11:43;2.55;;;2.35;;
26253;SDS011;53339;51.378;0.094;2022-07-06T11:14:35;2.25;;;2.05;;
26253;SDS011;53339;51.378;0.094;2022-07-06T11:17:23;2.22;;;0.80;;
26253;SDS011;53339;51.378;0.094;2022-07-06T11:20:10;3.05;;;2.28;;
26253;SDS011;53339;51.378;0.094;2022-07-06T11:22:57;3.55;;;2.33;;
26253;SDS011;53339;51.378;0.094;2022-07-06T11:25:44;2.35;;;1.10;;
26253;SDS011;53339;51.378;0.094;2022-07-06T11:28:31;2.55;;;2.35;;
26253;SDS011;53339;51.378;0.094;2022-07-06T11:31:17;2.30;;;2.00;;
26253;SDS011;53339;51.378;0.094;2022-07-06T11:34:04;2.60;;;2.40;;
26253;SDS011;53339;51.378;0.094;2022-07-06T11:36:55;2.30;;;1.98;;
26253;SDS011;53339;51.378;0.094;2022-07-06T11:39:49;2.50;;;1.88;;
26253;SDS011;53339;51.378;0.094;2022-07-06T11:42:35;2.38;;;2.17;;
26253;SDS011;53339;51.378;0.094;2022-07-06T11:45:25;2.83;;;2.63;;
26253;SDS011;53339;51.378;0.094;2022-07-06T11:48:12;2.40;;;2.20;;
26253;SDS011;53339;51.378;0.094;2022-07-06T11:51:02;3.15;;;2.65;;
26253;SDS011;53339;51.378;0.094;2022-07-06T11:53:50;3.20;;;1.98;;
26253;SDS011;53339;51.378;0.094;2022-07-06T11:56:45;1.98;;;1.60;;
26253;SDS011;53339;51.378;0.094;2022-07-06T11:59:34;2.15;;;1.95;;
26253;SDS011;53339;51.378;0.094;2022-07-06T12:02:21;1.60;;;0.80;;
26253;SDS011;53339;51.378;0.094;2022-07-06T12:05:07;2.35;;;2.15;;
26253;SDS011;53339;51.378;0.094;2022-07-06T12:08:06;2.75;;;2.08;;
26253;SDS011;53339;51.378;0.094;2022-07-06T12:10:54;3.30;;;2.42;;
26253;SDS011;53339;51.378;0.094;2022-07-06T12:13:41;1.65;;;0.70;;
26253;SDS011;53339;51.378;0.094;2022-07-06T12:16:32;2.45;;;2.25;;
26253;SDS011;53339;51.378;0.094;2022-07-06T12:19:21;2.47;;;2.17;;
26253;SDS011;53339;51.378;0.094;2022-07-06T12:22:09;2.03;;;1.85;;
26253;SDS011;53339;51.378;0.094;2022-07-06T12:24:56;3.10;;;2.90;;
26253;SDS011;53339;51.378;0.094;2022-07-06T12:27:44;2.33;;;2.13;;
26253;SDS011;53339;51.378;0.094;2022-07-06T12:30:31;2.63;;;2.25;;
26253;SDS011;53339;51.378;0.094;2022-07-06T12:33:17;2.35;;;2.13;;
26253;SDS011;53339;51.378;0.094;2022-07-06T12:36:13;2.35;;;2.13;;
26253;SDS011;53339;51.378;0.094;2022-07-06T12:39:01;2.72;;;2.17;;
26253;SDS011;53339;51.378;0.094;2022-07-06T12:42:03;2.47;;;0.82;;
26253;SDS011;53339;51.378;0.094;2022-07-06T12:44:56;1.67;;;1.02;;
26253;SDS011;53339;51.378;0.094;2022-07-06T12:47:48;6.15;;;1.90;;
26253;SDS011;53339;51.378;0.094;2022-07-06T12:50:44;3.58;;;1.80;;
26253;SDS011;53339;51.378;0.094;2022-07-06T12:53:32;3.22;;;1.85;;
26253;SDS011;53339;51.378;0.094;2022-07-06T12:56:18;2.10;;;1.83;;
26253;SDS011;53339;51.378;0.094;2022-07-06T12:59:05;2.38;;;2.22;;
26253;SDS011;53339;51.378;0.094;2022-07-06T13:01:51;3.33;;;2.17;;
26253;SDS011;53339;51.378;0.094;2022-07-06T13:04:41;1.30;;;0.63;;
26253;SDS011;53339;51.378;0.094;2022-07-06T13:07:28;3.10;;;2.47;;
26253;SDS011;53339;51.378;0.094;2022-07-06T13:10:17;2.83;;;1.95;;
26253;SDS011;53339;51.378;0.094;2022-07-06T13:13:03;1.50;;;0.52;;
26253;SDS011;53339;51.378;0.094;2022-07-06T13:15:53;3.40;;;2.70;;
26253;SDS011;53339;51.378;0.094;2022-07-06T13:18:40;2.75;;;2.28;;
26253;SDS011;53339;51.378;0.094;2022-07-06T13:21:26;2.67;;;2.47;;
26253;SDS011;53339;51.378;0.094;2022-07-06T13:24:12;3.50;;;2.08;;
26253;SDS011;53339;51.378;0.094;2022-07-06T13:26:58;3.60;;;2.35;;
26253;SDS011;53339;51.378;0.094;2022-07-06T13:29:44;2.33;;;2.13;;
26253;SDS011;53339;51.378;0.094;2022-07-06T13:32:30;3.03;;;2.28;;
26253;SDS011;53339;51.378;0.094;2022-07-06T13:35:18;0.88;;;0.30;;
26253;SDS011;53339;51.378;0.094;2022-07-06T13:38:04;3.35;;;2.55;;
26253;SDS011;53339;51.378;0.094;2022-07-06T13:40:55;3.78;;;3.47;;
26253;SDS011;53339;51.378;0.094;2022-07-06T13:43:41;2.45;;;2.10;;
26253;SDS011;53339;51.378;0.094;2022-07-06T13:46:28;3.17;;;2.88;;
26253;SDS011;53339;51.378;0.094;2022-07-06T13:49:15;2.00;;;1.80;;
26253;SDS011;53339;51.378;0.094;2022-07-06T13:52:02;3.35;;;1.98;;
26253;SDS011;53339;51.378;0.094;2022-07-06T13:54:49;1.70;;;0.80;;
26253;SDS011;53339;51.378;0.094;2022-07-06T13:57:35;3.10;;;1.75;;
26253;SDS011;53339;51.378;0.094;2022-07-06T14:00:23;2.05;;;1.58;;
26253;SDS011;53339;51.378;0.094;2022-07-06T14:03:10;2.72;;;2.03;;
26253;SDS011;53339;51.378;0.094;2022-07-06T14:05:57;2.88;;;1.90;;
26253;SDS011;53339;51.378;0.094;2022-07-06T14:08:44;2.75;;;2.53;;
26253;SDS011;53339;51.378;0.094;2022-07-06T14:11:30;3.53;;;2.28;;
26253;SDS011;53339;51.378;0.094;2022-07-06T14:14:16;2.28;;;2.08;;
26253;SDS011;53339;51.378;0.094;2022-07-06T14:17:03;3.13;;;2.92;;
26253;SDS011;53339;51.378;0.094;2022-07-06T14:19:49;3.58;;;2.63;;
26253;SDS011;53339;51.378;0.094;2022-07-06T14:22:35;2.72;;;2.25;;
26253;SDS011;53339;51.378;0.094;2022-07-06T14:25:21;2.53;;;1.98;;
26253;SDS011;53339;51.378;0.094;2022-07-06T14:28:08;1.75;;;0.90;;
26253;SDS011;53339;51.378;0.094;2022-07-06T14:30:55;3.15;;;2.20;;
26253;SDS011;53339;51.378;0.094;2022-07-06T14:33:40;1.67;;;1.58;;
26253;SDS011;53339;51.378;0.094;2022-07-06T14:36:27;1.10;;;0.70;;
26253;SDS011;53339;51.378;0.094;2022-07-06T14:39:13;2.20;;;2.03;;
26253;SDS011;53339;51.378;0.094;2022-07-06T14:41:59;1.92;;;1.70;;
26253;SDS011;53339;51.378;0.094;2022-07-06T14:44:45;2.35;;;2.15;;
26253;SDS011;53339;51.378;0.094;2022-07-06T14:47:31;2.40;;;2.20;;
26253;SDS011;53339;51.378;0.094;2022-07-06T14:50:17;2.67;;;2.47;;
26253;SDS011;53339;51.378;0.094;2022-07-06T14:53:03;2.30;;;2.05;;
26253;SDS011;53339;51.378;0.094;2022-07-06T14:55:49;2.53;;;1.92;;
26253;SDS011;53339;51.378;0.094;2022-07-06T14:58:36;1.88;;;1.40;;
26253;SDS011;53339;51.378;0.094;2022-07-06T15:01:23;1.83;;;1.70;;
26253;SDS011;53339;51.378;0.094;2022-07-06T15:04:09;2.30;;;2.10;;
26253;SDS011;53339;51.378;0.094;2022-07-06T15:06:56;3.03;;;1.92;;
26253;SDS011;53339;51.378;0.094;2022-07-06T15:09:42;4.05;;;1.95;;
26253;SDS011;53339;51.378;0.094;2022-07-06T15:12:29;3.95;;;3.65;;
26253;SDS011;53339;51.378;0.094;2022-07-06T15:15:15;3.40;;;2.20;;
26253;SDS011;53339;51.378;0.094;2022-07-06T15:18:21;3.08;;;2.65;;
26253;SDS011;53339;51.378;0.094;2022-07-06T15:21:07;3.92;;;2.05;;
26253;SDS011;53339;51.378;0.094;2022-07-06T15:23:55;1.98;;;1.73;;
26253;SDS011;53339;51.378;0.094;2022-07-06T15:26:41;2.70;;;0.82;;
26253;SDS011;53339;51.378;0.094;2022-07-06T15:29:28;3.20;;;1.98;;
26253;SDS011;53339;51.378;0.094;2022-07-06T15:32:14;2.88;;;2.13;;
26253;SDS011;53339;51.378;0.094;2022-07-06T15:35:00;1.83;;;1.63;;
26253;SDS011;53339;51.378;0.094;2022-07-06T15:37:46;2.88;;;1.85;;
26253;SDS011;53339;51.378;0.094;2022-07-06T15:40:38;1.60;;;1.50;;
26253;SDS011;53339;51.378;0.094;2022-07-06T15:43:30;2.75;;;2.20;;
26253;SDS011;53339;51.378;0.094;2022-07-06T15:46:17;4.72;;;2.25;;
26253;SDS011;53339;51.378;0.094;2022-07-06T15:49:03;2.03;;;1.83;;
26253;SDS011;53339;51.378;0.094;2022-07-06T15:51:49;2.33;;;2.13;;
26253;SDS011;53339;51.378;0.094;2022-07-06T15:54:36;2.58;;;2.38;;
26253;SDS011;53339;51.378;0.094;2022-07-06T15:57:22;6.60;;;2.33;;
26253;SDS011;53339;51.378;0.094;2022-07-06T16:00:08;1.85;;;1.70;;
26253;SDS011;53339;51.378;0.094;2022-07-06T16:02:57;2.22;;;2.03;;
26253;SDS011;53339;51.378;0.094;2022-07-06T16:05:43;2.97;;;2.67;;
26253;SDS011;53339;51.378;0.094;2022-07-06T16:08:49;2.40;;;2.15;;
26253;SDS011;53339;51.378;0.094;2022-07-06T16:11:35;2.08;;;1.88;;
26253;SDS011;53339;51.378;0.094;2022-07-06T16:14:22;0.95;;;0.60;;
26253;SDS011;53339;51.378;0.094;2022-07-06T16:17:08;4.28;;;2.08;;
26253;SDS011;53339;51.378;0.094;2022-07-06T16:19:54;2.97;;;2.28;;
26253;SDS011;53339;51.378;0.094;2022-07-06T16:22:40;3.40;;;2.72;;
26253;SDS011;53339;51.378;0.094;2022-07-06T16:25:27;2.38;;;0.80;;
26253;SDS011;53339;51.378;0.094;2022-07-06T16:28:13;2.95;;;2.22;;
26253;SDS011;53339;51.378;0.094;2022-07-06T16:30:59;2.28;;;2.08;;
26253;SDS011;53339;51.378;0.094;2022-07-06T16:33:45;2.58;;;2.38;;
26253;SDS011;53339;51.378;0.094;2022-07-06T16:36:32;2.60;;;2.40;;
26253;SDS011;53339;51.378;0.094;2022-07-06T16:39:17;3.33;;;3.08;;
26253;SDS011;53339;51.378;0.094;2022-07-06T16:42:04;2.78;;;2.30;;
26253;SDS011;53339;51.378;0.094;2022-07-06T16:44:50;3.75;;;3.00;;
26253;SDS011;53339;51.378;0.094;2022-07-06T16:47:37;6.65;;;2.35;;
26253;SDS011;53339;51.378;0.094;2022-07-06T16:50:23;3.58;;;2.58;;
26253;SDS011;53339;51.378;0.094;2022-07-06T16:53:10;1.90;;;1.50;;
26253;SDS011;53339;51.378;0.094;2022-07-06T16:56:02;2.80;;;2.13;;
26253;SDS011;53339;51.378;0.094;2022-07-06T16:58:48;3.65;;;1.33;;
26253;SDS011;53339;51.378;0.094;2022-07-06T17:01:34;1.95;;;1.67;;
26253;SDS011;53339;51.378;0.094;2022-07-06T17:04:21;2.55;;;1.40;;